Flight Track Log - Related Links

Times and Time Zones

All times are in EDT time to prevent confusion due to time zone crossing. See the N607AH flight status page for this flight to view local times or setup timezone preferences in your user account.

Time Position Orientation Groundspeed Altitude Reporting Facility
EDT Latitude Longitude Course Direction KTS MPH feet Rate Location/Type
Mon 04:55:27 PM 42.4667 -71.2667 36° Northeast 101 116 900  Level KA90
Mon 04:56:41 PM 42.5167 -71.2167 36° Northeast 166 191 2,200 974 Climbing KA90
Mon 04:58:38 PM 42.5764 -71.1403 43° Northeast 177 204 4,000 747 Climbing Boston Center
Mon 05:00:00 PM 42.5943 -71.0253 48° Northeast  Level FlightAware Approximate
Mon 05:00:50 PM 42.6453 -70.9722 48° Northeast 218 251 5,300  Level Boston Center
Mon 05:01:50 PM 42.6756 -70.9011 60° Northeast 206 237 6,500 1,167 Climbing Boston Center
Mon 05:03:00 PM 42.6917 -70.8041 48° Northeast  Level FlightAware Approximate
Mon 05:03:50 PM 42.7319 -70.7725 48° Northeast 199 229 8,800  Level Boston Center
Mon 05:05:00 PM 42.7635 -70.6830 61° Northeast  Level FlightAware Approximate
Mon 05:07:02 PM 42.8353 -70.5686 36° Northeast 202 232 12,000  Level Boston Center
Mon 05:08:02 PM 42.8822 -70.5161 39° Northeast 229 264 12,100 50 Climbing Boston Center
Mon 05:09:02 PM 42.9436 -70.4489 39° Northeast 257 296 12,100  Level Boston Center
Mon 05:10:02 PM 42.9969 -70.3961 36° Northeast 257 296 12,100  Level Boston Center
Mon 05:11:02 PM 43.0625 -70.3342 35° Northeast 257 296 12,100  Level Boston Center
Mon 05:12:00 PM 43.0827 -70.3197 36° Northeast  Level FlightAware Approximate
Mon 05:12:02 PM 43.1239 -70.2753 35° Northeast 262 302 12,100  Level Boston Center
Mon 05:14:02 PM 43.2425 -70.1628 35° Northeast 257 296 12,100  Level Boston Center
Mon 05:15:02 PM 43.3039 -70.1033 35° Northeast 257 296 12,100  Level Boston Center
Mon 05:17:02 PM 43.4244 -69.9872 35° Northeast 257 296 12,100  Level Boston Center
Mon 05:19:00 PM 43.5184 -69.8865 38° Northeast  Level FlightAware Approximate
Mon 05:22:02 PM 43.7242 -69.6933 38° Northeast 262 302 12,100  Level Boston Center
Mon 05:23:02 PM 43.7872 -69.6331 35° Northeast 262 302 12,100  Level Boston Center
Mon 05:24:02 PM 43.8422 -69.5817 34° Northeast 262 302 12,100 -50 Level Boston Center
Mon 05:25:02 PM 43.9072 -69.5150 36° Northeast 262 302 12,000 -575 Descending Boston Center
Mon 05:26:00 PM 43.8656 -69.5511 36° Northeast  Level FlightAware Approximate
Mon 05:27:00 PM 44.0028 -69.4018 34° Northeast  Level FlightAware Approximate
Mon 05:27:00 PM 43.9142 -69.5011 38° Northeast  Level FlightAware Approximate
Mon 05:28:02 PM 44.0842 -69.3386 34° Northeast 261 300 9,800  Level Boston Center
Mon 05:30:02 PM 44.2017 -69.2225 35° Northeast 256 295 6,900 -1,433 Descending Boston Center
Mon 05:31:02 PM 44.2586 -69.1672 35° Northeast 256 295 5,500 -850 Descending Boston Center
Mon 05:32:02 PM 44.3092 -69.1181 35° Northeast 256 295 5,200 -250 Descending Boston Center
Mon 05:33:02 PM 44.3558 -69.0717 35° Northeast 256 295 5,000 -100 Descending Boston Center
Mon 05:34:02 PM 44.4286 -68.9978 36° Northeast 256 295 5,000  Level Boston Center
Mon 05:35:02 PM 44.4853 -68.9422 35° Northeast 256 295 5,000  Level Boston Center
Mon 05:37:02 PM 44.4953 -68.9300 41° Northeast 256 295 5,000  Level Boston Center
Mon 05:39:00 PM 44.4000 -69.0000 216° Southwest  Level FlightAware Approximate
Mon 05:40:02 PM 44.4953 -68.9300 216° Southwest 256 295 5,000  Level Boston Center
Mon 05:42:00 PM 44.4000 -69.0000 216° Southwest  Level FlightAware Approximate
Mon 05:49:00 PM 44.4094 -69.0118 216° Southwest  Level Estimated
Mon 05:50:00 PM 44.4094 -69.0118 216° Southwest  Level Estimated

Login

Don't have an account? Register now (free) for customized features, flight alerts, and more!